createdAt,value
2018-04-12T00:02:23.955Z,14.60
2018-04-12T00:04:50.165Z,14.60
2018-04-12T00:07:16.396Z,14.60
2018-04-12T00:09:43.359Z,14.60
2018-04-12T00:12:09.589Z,14.60
2018-04-12T00:14:36.560Z,14.60
2018-04-12T00:17:02.823Z,14.60
2018-04-12T00:19:29.043Z,14.70
2018-04-12T00:21:55.295Z,14.60
2018-04-12T00:24:21.522Z,14.60
2018-04-12T00:26:47.748Z,14.60
2018-04-12T00:29:14.731Z,14.50
2018-04-12T00:31:40.948Z,14.50
2018-04-12T00:34:07.908Z,14.50
2018-04-12T00:36:34.884Z,14.40
2018-04-12T00:39:01.110Z,14.40
2018-04-12T00:41:28.077Z,14.50
2018-04-12T00:43:54.296Z,14.40
2018-04-12T00:46:21.249Z,14.50
2018-04-12T00:48:47.491Z,14.50
2018-04-12T00:51:14.450Z,14.40
2018-04-12T00:53:53.869Z,14.40
2018-04-12T00:56:20.121Z,14.40
2018-04-12T00:58:46.365Z,14.40
2018-04-12T01:01:12.637Z,14.30
2018-04-12T01:03:39.624Z,14.20
2018-04-12T01:06:05.851Z,14.20
2018-04-12T01:08:32.058Z,14.20
2018-04-12T01:10:58.275Z,14.10
2018-04-12T01:13:24.488Z,14.00
2018-04-12T01:15:50.693Z,14.00
2018-04-12T01:18:17.732Z,13.90
2018-04-12T01:20:43.970Z,13.90
2018-04-12T01:23:10.693Z,13.80
2018-04-12T01:25:37.291Z,13.80
2018-04-12T01:28:04.287Z,13.70
2018-04-12T01:30:30.497Z,13.70
2018-04-12T01:33:09.765Z,13.60
2018-04-12T01:35:36.032Z,13.60
2018-04-12T01:38:02.276Z,13.60
2018-04-12T01:40:28.499Z,13.50
2018-04-12T01:42:54.746Z,13.50
2018-04-12T01:45:20.982Z,13.50
2018-04-12T01:47:47.218Z,13.50
2018-04-12T01:50:13.451Z,13.40
2018-04-12T01:52:39.729Z,13.50
2018-04-12T01:55:05.978Z,13.40
2018-04-12T01:57:32.228Z,13.40
2018-04-12T01:59:58.450Z,13.40
2018-04-12T02:02:24.924Z,13.30
2018-04-12T02:04:51.905Z,13.30
2018-04-12T02:07:18.097Z,13.30
2018-04-12T02:09:44.329Z,13.30
2018-04-12T02:12:10.546Z,13.30
2018-04-12T02:14:36.850Z,13.30
2018-04-12T02:17:03.817Z,13.30
2018-04-12T02:19:30.063Z,13.30
2018-04-12T02:21:56.286Z,13.40
2018-04-12T02:24:23.258Z,13.40
2018-04-12T02:26:50.224Z,13.30
2018-04-12T02:29:16.461Z,13.30
2018-04-12T02:31:42.684Z,13.40
2018-04-12T02:34:09.630Z,13.40
2018-04-12T02:36:35.845Z,13.40
2018-04-12T02:39:02.108Z,13.50
2018-04-12T02:41:28.335Z,13.60
2018-04-12T02:43:54.573Z,13.60
2018-04-12T02:46:20.779Z,13.70
2018-04-12T02:48:47.028Z,13.70
2018-04-12T02:51:13.241Z,13.80
2018-04-12T02:53:39.480Z,13.90
2018-04-12T02:56:05.682Z,14.00
2018-04-12T02:58:31.902Z,14.20
2018-04-12T03:00:58.890Z,14.30
2018-04-12T03:03:25.166Z,14.30
2018-04-12T03:05:51.388Z,14.30
2018-04-12T03:08:18.362Z,14.30
2018-04-12T03:10:44.581Z,14.30
2018-04-12T03:13:11.547Z,14.30
2018-04-12T03:15:38.532Z,14.20
2018-04-12T03:18:04.755Z,14.20
2018-04-12T03:20:31.004Z,14.30
2018-04-12T03:22:57.220Z,14.20
2018-04-12T03:25:24.190Z,14.20
2018-04-12T03:27:51.149Z,14.10
2018-04-12T03:30:17.377Z,14.10
2018-04-12T03:32:44.317Z,14.10
2018-04-12T03:35:10.549Z,14.10
2018-04-12T03:37:36.761Z,14.00
2018-04-12T03:40:03.026Z,14.10
2018-04-12T03:42:29.250Z,14.00
2018-04-12T03:44:55.486Z,14.00
2018-04-12T03:47:21.697Z,14.00
2018-04-12T03:49:47.956Z,13.90
2018-04-12T03:52:14.170Z,13.90
2018-04-12T03:54:40.404Z,13.80
2018-04-12T03:57:07.362Z,13.70
2018-04-12T03:59:33.591Z,13.70
2018-04-12T04:02:00.563Z,13.60
2018-04-12T04:04:27.546Z,13.60
2018-04-12T04:06:53.768Z,13.50
2018-04-12T04:09:20.008Z,13.50
2018-04-12T04:11:46.222Z,13.50
2018-04-12T04:14:25.617Z,13.40
2018-04-12T04:17:04.086Z,13.40
2018-04-12T04:19:54.365Z,13.40
2018-04-12T04:22:20.573Z,13.30
2018-04-12T04:24:46.807Z,13.40
2018-04-12T04:27:13.912Z,13.30
2018-04-12T04:29:40.140Z,13.40
2018-04-12T04:32:06.373Z,13.40
2018-04-12T04:34:32.609Z,13.40
2018-04-12T04:36:58.819Z,13.40
2018-04-12T04:39:25.821Z,13.40
2018-04-12T04:41:52.035Z,13.40
2018-04-12T04:44:18.255Z,13.40
2018-04-12T04:46:45.224Z,13.40
2018-04-12T04:49:12.176Z,13.40
2018-04-12T04:51:39.178Z,13.40
2018-04-12T04:54:05.388Z,13.40
2018-04-12T04:56:31.618Z,13.40
2018-04-12T04:58:58.562Z,13.40
2018-04-12T05:01:25.624Z,13.40
2018-04-12T05:03:52.102Z,13.40
2018-04-12T05:06:18.360Z,13.50
2018-04-12T05:08:44.611Z,13.50
2018-04-12T05:11:10.852Z,13.50
2018-04-12T05:13:37.081Z,13.60
2018-04-12T05:16:03.337Z,13.50
2018-04-12T05:18:29.583Z,13.50
2018-04-12T05:20:55.835Z,13.50
2018-04-12T05:23:22.087Z,13.40
2018-04-12T05:25:48.353Z,13.50
2018-04-12T05:28:14.614Z,13.50
2018-04-12T05:30:40.839Z,13.60
2018-04-12T05:33:07.065Z,13.70
2018-04-12T05:35:34.093Z,13.90
2018-04-12T05:38:00.329Z,13.90
2018-04-12T05:40:26.571Z,13.90
2018-04-12T05:42:52.775Z,14.00
2018-04-12T05:45:19.005Z,14.00
2018-04-12T05:47:45.221Z,14.10
2018-04-12T05:50:12.193Z,14.20
2018-04-12T05:52:38.425Z,14.20
2018-04-12T05:55:05.375Z,14.30
2018-04-12T05:57:32.342Z,14.40
2018-04-12T05:59:58.573Z,14.30
2018-04-12T06:02:25.561Z,14.60
2018-04-12T06:04:51.936Z,14.60
2018-04-12T06:07:18.172Z,14.70
2018-04-12T06:09:44.388Z,14.80
2018-04-12T06:12:10.623Z,15.00
2018-04-12T06:14:36.863Z,15.10
2018-04-12T06:17:03.137Z,15.10
2018-04-12T06:19:29.367Z,15.20
2018-04-12T06:21:55.593Z,15.20
2018-04-12T06:24:21.819Z,15.30
2018-04-12T06:26:48.043Z,15.40
2018-04-12T06:29:14.289Z,15.40
2018-04-12T06:31:40.533Z,15.40
2018-04-12T06:34:06.748Z,15.40
2018-04-12T06:36:33.745Z,15.20
2018-04-12T06:39:00.194Z,15.20
2018-04-12T06:41:26.466Z,15.20
2018-04-12T06:43:52.704Z,15.10
2018-04-12T06:46:18.962Z,15.10
2018-04-12T06:48:45.162Z,15.00
2018-04-12T06:51:12.277Z,15.00
2018-04-12T06:53:39.233Z,14.90
2018-04-12T06:56:06.220Z,15.00
2018-04-12T06:58:32.452Z,14.90
2018-04-12T07:00:58.702Z,15.00
2018-04-12T07:03:24.922Z,15.00
2018-04-12T07:05:52.578Z,15.10
2018-04-12T07:08:19.600Z,15.20
2018-04-12T07:10:45.817Z,15.20
2018-04-12T07:13:12.048Z,15.30
2018-04-12T07:15:38.278Z,15.40
2018-04-12T07:18:05.316Z,15.60
2018-04-12T07:20:31.543Z,15.60
2018-04-12T07:22:57.779Z,15.70
2018-04-12T07:25:23.997Z,15.80
2018-04-12T07:27:50.236Z,16.00
2018-04-12T07:30:16.486Z,16.20
2018-04-12T07:32:42.727Z,16.30
2018-04-12T07:35:08.957Z,16.50
2018-04-12T07:37:35.217Z,16.60
2018-04-12T07:40:01.466Z,16.80
2018-04-12T07:42:27.691Z,16.90
2018-04-12T07:44:53.911Z,17.00
2018-04-12T07:47:20.157Z,17.20
2018-04-12T07:49:46.365Z,17.20
2018-04-12T07:52:13.335Z,17.40
2018-04-12T07:54:39.537Z,17.40
2018-04-12T07:57:05.755Z,17.50
2018-04-12T07:59:31.983Z,17.60
2018-04-12T08:01:58.245Z,17.70
2018-04-12T08:04:24.495Z,17.80
2018-04-12T08:06:50.802Z,17.90
2018-04-12T08:09:17.005Z,18.00
2018-04-12T08:11:43.977Z,18.30
2018-04-12T08:14:10.204Z,18.30
2018-04-12T08:16:37.248Z,18.60
2018-04-12T08:19:04.259Z,18.80
2018-04-12T08:21:30.500Z,18.80
2018-04-12T08:23:56.740Z,18.90
2018-04-12T08:26:23.013Z,19.00
2018-04-12T08:28:49.313Z,19.10
2018-04-12T08:31:16.259Z,19.40
2018-04-12T08:33:42.491Z,19.40
2018-04-12T08:36:09.431Z,19.80
2018-04-12T08:38:36.416Z,19.90
2018-04-12T08:41:02.651Z,19.80
2018-04-12T08:43:28.877Z,20.00
2018-04-12T08:45:55.862Z,20.20
2018-04-12T08:48:22.083Z,20.20
2018-04-12T08:50:48.309Z,20.30
2018-04-12T08:53:15.320Z,20.40
2018-04-12T08:55:41.522Z,20.40
2018-04-12T08:58:08.530Z,20.50
2018-04-12T09:00:34.764Z,20.50
2018-04-12T09:03:01.020Z,20.60
2018-04-12T09:05:27.241Z,20.70
2018-04-12T09:07:53.493Z,20.80
2018-04-12T09:10:19.725Z,20.90
2018-04-12T09:12:45.973Z,21.00
2018-04-12T09:15:12.168Z,21.10
2018-04-12T09:17:38.439Z,21.20
2018-04-12T09:20:04.662Z,21.20
2018-04-12T09:22:30.902Z,21.20
2018-04-12T09:24:57.118Z,21.10
2018-04-12T09:27:24.089Z,21.20
2018-04-12T09:29:50.331Z,21.10
2018-04-12T09:32:16.571Z,21.20
2018-04-12T09:34:43.530Z,21.40
2018-04-12T09:37:09.754Z,21.30
2018-04-12T09:39:36.730Z,21.40
2018-04-12T09:42:02.978Z,21.40
2018-04-12T09:44:29.210Z,21.60
2018-04-12T09:46:55.410Z,21.90
2018-04-12T09:49:21.709Z,22.20
2018-04-12T09:51:48.609Z,22.70
2018-04-12T09:54:14.853Z,22.70
2018-04-12T09:56:41.853Z,22.90
2018-04-12T09:59:08.106Z,22.80
2018-04-12T10:01:40.337Z,23.00
2018-04-12T10:04:13.336Z,23.10
2018-04-12T10:06:40.302Z,23.10
2018-04-12T10:09:13.469Z,23.10
2018-04-12T10:11:39.717Z,23.10
2018-04-12T10:14:05.953Z,23.10
2018-04-12T10:16:32.198Z,23.00
2018-04-12T10:18:58.425Z,23.10
2018-04-12T10:21:24.639Z,23.30
2018-04-12T10:23:50.865Z,23.70
2018-04-12T10:26:17.109Z,23.90
2018-04-12T10:28:43.384Z,23.90
2018-04-12T10:31:09.615Z,24.00
2018-04-12T10:33:35.869Z,23.90
2018-04-12T10:36:02.079Z,23.80
2018-04-12T10:38:28.312Z,23.70
2018-04-12T10:40:54.535Z,24.00
2018-04-12T10:43:21.501Z,24.70
2018-04-12T10:45:47.745Z,24.60
2018-04-12T10:48:21.029Z,24.70
2018-04-12T10:50:48.009Z,24.60
2018-04-12T10:53:14.263Z,24.60
2018-04-12T10:55:40.507Z,24.60
2018-04-12T10:58:06.721Z,24.50
2018-04-12T11:00:32.965Z,24.40
2018-04-12T11:02:59.934Z,24.90
2018-04-12T11:05:26.184Z,24.80
2018-04-12T11:07:52.397Z,25.20
2018-04-12T11:10:19.416Z,25.20
2018-04-12T11:12:45.639Z,25.20
2018-04-12T11:15:11.880Z,25.50
2018-04-12T11:17:53.027Z,26.00
2018-04-12T11:20:19.983Z,26.20
2018-04-12T11:22:46.951Z,25.80
2018-04-12T11:25:13.163Z,25.80
2018-04-12T11:27:39.397Z,25.50
2018-04-12T11:30:05.678Z,25.20
2018-04-12T11:32:31.892Z,24.90
2018-04-12T11:34:58.869Z,24.10
2018-04-12T11:37:25.119Z,24.10
2018-04-12T11:39:51.340Z,23.80
2018-04-12T11:42:18.303Z,23.50
2018-04-12T11:44:45.298Z,23.80
2018-04-12T11:47:11.556Z,23.80
2018-04-12T11:49:37.795Z,24.20
2018-04-12T11:52:04.018Z,24.80
2018-04-12T11:54:30.288Z,25.20
2018-04-12T11:56:56.501Z,25.30
2018-04-12T11:59:22.742Z,25.20
2018-04-12T12:01:48.992Z,25.00
2018-04-12T12:04:15.960Z,24.70
2018-04-12T12:06:42.258Z,24.70
2018-04-12T12:09:09.342Z,24.50
2018-04-12T12:11:35.569Z,24.50
2018-04-12T12:14:01.780Z,24.60
2018-04-12T12:16:28.730Z,24.70
2018-04-12T12:18:55.713Z,24.60
2018-04-12T12:21:21.946Z,24.60
2018-04-12T12:23:48.935Z,24.70
2018-04-12T12:26:15.211Z,24.70
2018-04-12T12:28:41.431Z,24.90
2018-04-12T12:31:07.665Z,25.40
2018-04-12T12:33:33.950Z,25.70
2018-04-12T12:36:00.943Z,26.10
2018-04-12T12:38:27.150Z,26.10
2018-04-12T12:40:54.165Z,25.80
2018-04-12T12:43:32.561Z,25.80
2018-04-12T12:46:04.897Z,25.50
2018-04-12T12:48:37.305Z,25.20
2018-04-12T12:51:03.552Z,25.00
2018-04-12T12:53:36.507Z,24.60
2018-04-12T12:56:14.907Z,24.50
2018-04-12T12:58:47.218Z,24.40
2018-04-12T13:01:19.593Z,24.10
2018-04-12T13:03:51.916Z,23.90
2018-04-12T13:06:18.177Z,23.70
2018-04-12T13:08:51.367Z,23.50
2018-04-12T13:11:18.375Z,23.40
2018-04-12T13:13:50.713Z,23.40
2018-04-12T13:16:17.723Z,23.10
2018-04-12T13:18:50.077Z,23.10
2018-04-12T13:21:22.430Z,23.00
2018-04-12T13:23:54.845Z,23.00
2018-04-12T13:26:21.098Z,23.00
2018-04-12T13:28:53.357Z,23.10
2018-04-12T13:31:32.442Z,23.20
2018-04-12T13:33:58.652Z,23.10
2018-04-12T13:36:24.893Z,23.10
2018-04-12T13:39:03.400Z,23.10
2018-04-12T13:41:36.412Z,22.80
2018-04-12T13:44:02.635Z,22.80
2018-04-12T13:46:29.632Z,22.80
2018-04-12T13:49:02.113Z,22.80
2018-04-12T13:51:28.390Z,22.80
2018-04-12T13:54:00.753Z,22.90
2018-04-12T13:56:33.242Z,22.90
2018-04-12T13:59:05.661Z,23.00
2018-04-12T14:01:38.036Z,23.00
2018-04-12T14:04:10.272Z,22.90
2018-04-12T14:06:48.552Z,22.80
2018-04-12T14:09:26.955Z,22.70
2018-04-12T14:12:05.435Z,22.60
2018-04-12T14:14:44.711Z,22.50
2018-04-12T14:17:10.960Z,22.50
2018-04-12T14:19:37.194Z,22.50
2018-04-12T14:22:03.463Z,22.60
2018-04-12T14:24:42.587Z,22.70
2018-04-12T14:27:08.815Z,22.60
2018-04-12T14:29:35.033Z,22.70
2018-04-12T14:32:07.998Z,23.00
2018-04-12T14:34:52.651Z,23.00
2018-04-12T14:37:37.454Z,22.90
2018-04-12T14:40:09.899Z,22.80
2018-04-12T14:42:36.157Z,22.70
2018-04-12T14:45:02.397Z,22.50
2018-04-12T14:47:28.659Z,22.40
2018-04-12T14:49:54.885Z,22.20
2018-04-12T14:52:33.474Z,22.10
2018-04-12T14:55:05.802Z,22.00
2018-04-12T14:57:32.042Z,21.80
2018-04-12T14:59:58.266Z,21.70
2018-04-12T15:02:30.549Z,21.60
2018-04-12T15:05:02.954Z,21.60
2018-04-12T15:07:35.361Z,21.60
2018-04-12T15:10:02.432Z,21.80
2018-04-12T15:12:35.549Z,21.90
2018-04-12T15:15:07.904Z,21.90
2018-04-12T15:17:34.161Z,22.00
2018-04-12T15:20:01.130Z,22.10
2018-04-12T15:22:33.406Z,22.10
2018-04-12T15:25:00.351Z,22.00
2018-04-12T15:27:27.344Z,22.00
2018-04-12T15:29:53.611Z,22.00
2018-04-12T15:32:26.081Z,22.00
2018-04-12T15:34:58.499Z,22.00
2018-04-12T15:37:36.977Z,21.90
2018-04-12T15:40:15.371Z,21.80
2018-04-12T15:42:47.666Z,21.70
2018-04-12T15:45:27.070Z,21.60
2018-04-12T15:47:59.521Z,21.50
2018-04-12T15:50:25.827Z,21.50
2018-04-12T15:52:58.233Z,21.50
2018-04-12T15:55:25.206Z,21.50
2018-04-12T15:57:57.551Z,21.50
2018-04-12T16:00:24.517Z,21.40
2018-04-12T16:03:03.017Z,21.40
2018-04-12T16:05:41.473Z,21.30
2018-04-12T16:08:20.052Z,21.20
2018-04-12T16:10:46.267Z,21.20
2018-04-12T16:13:19.348Z,21.00
2018-04-12T16:15:51.592Z,21.00
2018-04-12T16:18:17.864Z,20.90
2018-04-12T16:20:56.133Z,20.90
2018-04-12T16:23:28.387Z,20.90
2018-04-12T16:26:01.577Z,20.90
2018-04-12T16:28:27.839Z,20.90
2018-04-12T16:31:00.148Z,21.00
2018-04-12T16:33:32.366Z,21.00
2018-04-12T16:35:58.600Z,21.10
2018-04-12T16:38:24.881Z,21.20
2018-04-12T16:40:57.825Z,21.50
2018-04-12T16:43:30.183Z,21.50
2018-04-12T16:45:56.827Z,21.70
2018-04-12T16:48:30.673Z,21.90
2018-04-12T16:51:03.009Z,22.00
2018-04-12T16:53:29.215Z,22.10
2018-04-12T16:56:01.535Z,22.10
2018-04-12T16:58:34.596Z,22.00
2018-04-12T17:01:06.972Z,21.90
2018-04-12T17:03:33.204Z,21.90
2018-04-12T17:06:05.460Z,21.80
2018-04-12T17:08:31.697Z,21.70
2018-04-12T17:10:58.673Z,21.40
2018-04-12T17:13:37.671Z,21.30
2018-04-12T17:16:10.197Z,21.10
2018-04-12T17:18:42.661Z,20.70
2018-04-12T17:21:21.868Z,19.90
2018-04-12T17:23:54.365Z,20.00
2018-04-12T17:26:33.481Z,19.60
2018-04-12T17:29:00.187Z,19.40
2018-04-12T17:31:32.632Z,19.20
2018-04-12T17:34:04.921Z,19.00
2018-04-12T17:36:37.819Z,18.80
2018-04-12T17:39:04.919Z,18.70
2018-04-12T17:41:31.909Z,18.50
2018-04-12T17:43:58.183Z,18.40
2018-04-12T17:46:24.408Z,18.30
2018-04-12T17:48:51.141Z,18.20
2018-04-12T17:51:23.661Z,18.10
2018-04-12T17:53:55.895Z,18.00
2018-04-12T17:56:22.960Z,17.70
2018-04-12T17:58:55.614Z,17.70
2018-04-12T18:01:27.877Z,17.60
2018-04-12T18:03:54.144Z,17.50
2018-04-12T18:06:26.932Z,17.30
2018-04-12T18:08:59.342Z,17.20
2018-04-12T18:11:44.807Z,17.00
2018-04-12T18:14:11.117Z,17.00
2018-04-12T18:16:43.577Z,16.90
2018-04-12T18:19:15.967Z,16.80
2018-04-12T18:21:48.189Z,16.70
2018-04-12T18:24:20.660Z,16.70
2018-04-12T18:26:46.899Z,16.60
2018-04-12T18:29:19.169Z,16.60
2018-04-12T18:31:57.726Z,16.50
2018-04-12T18:34:30.149Z,16.50
2018-04-12T18:37:03.362Z,16.30
2018-04-12T18:39:42.791Z,16.20
2018-04-12T18:42:21.336Z,16.20
2018-04-12T18:44:54.390Z,16.10
2018-04-12T18:47:20.699Z,16.10
2018-04-12T18:49:46.990Z,16.00
2018-04-12T18:52:13.287Z,16.00
2018-04-12T18:54:45.626Z,16.00
2018-04-12T18:57:11.930Z,15.90
2018-04-12T18:59:38.232Z,15.80
2018-04-12T19:02:12.115Z,15.70
2018-04-12T19:04:38.595Z,15.70
2018-04-12T19:07:17.034Z,15.60
2018-04-12T19:09:43.345Z,15.50
2018-04-12T19:12:09.656Z,15.50
2018-04-12T19:14:37.186Z,15.40
2018-04-12T19:17:04.739Z,15.30
2018-04-12T19:19:31.774Z,15.10
2018-04-12T19:21:58.044Z,15.10
2018-04-12T19:24:31.221Z,14.90
2018-04-12T19:26:57.687Z,14.80
2018-04-12T19:29:30.048Z,14.70
2018-04-12T19:31:56.386Z,14.50
2018-04-12T19:34:28.714Z,14.40
2018-04-12T19:37:02.893Z,14.20
2018-04-12T19:39:35.138Z,14.20
2018-04-12T19:42:01.427Z,14.10
2018-04-12T19:44:27.857Z,14.00
2018-04-12T19:47:00.262Z,14.00
2018-04-12T19:49:32.750Z,13.90
2018-04-12T19:51:59.073Z,13.80
2018-04-12T19:54:26.477Z,13.70
2018-04-12T19:56:53.593Z,13.70
2018-04-12T19:59:31.954Z,13.60
2018-04-12T20:02:00.249Z,13.50
2018-04-12T20:04:32.856Z,13.50
2018-04-12T20:07:05.937Z,13.40
2018-04-12T20:09:38.299Z,13.30
2018-04-12T20:12:22.972Z,13.30
2018-04-12T20:15:01.743Z,13.20
2018-04-12T20:17:28.800Z,13.00
2018-04-12T20:20:02.548Z,13.00
2018-04-12T20:22:41.901Z,12.90
2018-04-12T20:25:08.494Z,12.90
2018-04-12T20:27:47.110Z,12.80
2018-04-12T20:30:19.484Z,12.70
2018-04-12T20:32:45.736Z,12.60
2018-04-12T20:35:11.984Z,12.50
2018-04-12T20:37:38.230Z,12.40
2018-04-12T20:40:05.612Z,12.30
2018-04-12T20:42:38.089Z,12.30
2018-04-12T20:45:04.409Z,12.20
2018-04-12T20:47:36.697Z,12.30
2018-04-12T20:50:09.452Z,12.30
2018-04-12T20:52:48.197Z,12.30
2018-04-12T20:55:20.647Z,12.40
2018-04-12T20:57:53.006Z,12.40
2018-04-12T21:00:25.341Z,12.40
2018-04-12T21:02:57.587Z,12.40
2018-04-12T21:05:29.832Z,12.40
2018-04-12T21:08:02.086Z,12.40
2018-04-12T21:10:28.292Z,12.40
2018-04-12T21:13:00.515Z,12.40
2018-04-12T21:15:26.879Z,12.40
2018-04-12T21:17:59.321Z,12.40
2018-04-12T21:20:32.343Z,12.40
2018-04-12T21:23:04.537Z,12.30
2018-04-12T21:25:36.774Z,12.30
2018-04-12T21:28:09.174Z,12.30
2018-04-12T21:30:42.397Z,12.30
2018-04-12T21:33:08.627Z,12.20
2018-04-12T21:35:41.016Z,12.20
2018-04-12T21:38:19.674Z,12.00
2018-04-12T21:40:45.909Z,11.90
2018-04-12T21:43:12.194Z,11.80
2018-04-12T21:45:44.558Z,11.80
2018-04-12T21:48:16.872Z,11.80
2018-04-12T21:50:50.005Z,11.80
2018-04-12T21:53:22.255Z,11.80
2018-04-12T21:55:49.241Z,11.80
2018-04-12T21:58:21.471Z,11.80
2018-04-12T22:00:53.776Z,11.80
2018-04-12T22:03:20.044Z,11.80
2018-04-12T22:05:58.553Z,11.80
2018-04-12T22:08:31.706Z,11.80
2018-04-12T22:10:57.949Z,11.70
2018-04-12T22:13:30.432Z,11.70
2018-04-12T22:15:56.813Z,11.70
2018-04-12T22:18:23.060Z,11.70
2018-04-12T22:20:55.403Z,11.70
2018-04-12T22:23:27.823Z,11.70
2018-04-12T22:26:12.515Z,11.60
2018-04-12T22:28:45.504Z,11.60
2018-04-12T22:31:18.642Z,11.60
2018-04-12T22:33:44.891Z,11.50
2018-04-12T22:36:17.115Z,11.60
2018-04-12T22:38:55.641Z,11.50
2018-04-12T22:41:21.869Z,11.50
2018-04-12T22:43:48.121Z,11.50
2018-04-12T22:46:14.346Z,11.50
2018-04-12T22:48:59.098Z,11.40
2018-04-12T22:51:31.353Z,11.40
2018-04-12T22:53:58.393Z,11.30
2018-04-12T22:56:24.591Z,11.20
2018-04-12T22:58:56.820Z,11.20
2018-04-12T23:01:29.230Z,11.10
2018-04-12T23:04:08.516Z,11.10
2018-04-12T23:06:40.771Z,11.10
2018-04-12T23:09:07.002Z,11.00
2018-04-12T23:11:33.238Z,10.90
2018-04-12T23:14:05.622Z,10.90
2018-04-12T23:16:32.730Z,10.90
2018-04-12T23:18:58.963Z,10.90
2018-04-12T23:21:31.201Z,10.90
2018-04-12T23:24:10.431Z,10.90
2018-04-12T23:26:48.859Z,11.00
2018-04-12T23:29:15.104Z,11.00
2018-04-12T23:31:48.113Z,11.00
2018-04-12T23:34:21.231Z,11.00
2018-04-12T23:36:47.511Z,11.00
2018-04-12T23:39:13.775Z,11.00
2018-04-12T23:41:39.999Z,10.90
2018-04-12T23:44:06.226Z,11.00
2018-04-12T23:46:44.682Z,10.90
2018-04-12T23:49:23.139Z,10.90
2018-04-12T23:52:02.422Z,10.80
2018-04-12T23:54:40.921Z,10.80
2018-04-12T23:57:14.011Z,10.70
2018-04-12T23:59:47.065Z,10.60
